Погода Сакуаремана 2 недели

Рио-де-Жанейро, Бразилия

25 июля-07 августа
  • 25июля
    Сегодня
    +14°
    +29°
    Ясно и безоблачно
    ВремяПогодаТемператураВлажностьДавлениеВетер, м/сВероятность осадков
    00:00Ясно и безоблачно+18°C91 %768 мм4.0 м/с5 %
    03:00Ясно и безоблачно+18°C92 %767 мм4.9 м/с2 %
    06:00Ясно и безоблачно+16°C93 %767 мм3.5 м/с5 %
    09:00Ясно и безоблачно+22°C78 %767 мм2.3 м/с5 %
    12:00Ясно и безоблачно+28°C57 %767 мм1.3 м/с5 %
    15:00Ясно и безоблачно+27°C68 %764 мм3.0 м/с5 %
    18:00Ясно и безоблачно+21°C82 %764 мм3.1 м/с5 %
    21:00Ясно и безоблачно+18°C84 %765 мм2.6 м/с5 %
  • 26июля
    Пятница
    +15°
    +30°
    Ясно и безоблачно
    ВремяПогодаТемператураВлажностьДавлениеВетер, м/сВероятность осадков
    00:00Ясно и безоблачно+17°C91 %765 мм3.0 м/с5 %
    03:00Практически безоблачно+16°C95 %764 мм2.9 м/с5 %
    06:00Небольшая облачность+14°C94 %764 мм2.4 м/с5 %
    09:00Ясно и безоблачно+22°C72 %765 мм1.8 м/с5 %
    12:00Ясно и безоблачно+29°C49 %764 мм1.8 м/с5 %
    15:00Ясно и безоблачно+27°C57 %763 мм2.9 м/с5 %
    18:00Небольшая облачность+21°C80 %764 мм2.5 м/с5 %
    21:00Облачно с прояснениями+19°C71 %765 мм2.5 м/с5 %
  • 27июля
    Суббота
    +15°
    +29°
    Облачно с прояснениями
    ВремяПогодаТемператураВлажностьДавлениеВетер, м/сВероятность осадков
    00:00Облачно с прояснениями+18°C84 %765 мм2.1 м/с5 %
    03:00Практически безоблачно+17°C89 %764 мм1.9 м/с5 %
    06:00Облачно с прояснениями+15°C89 %764 мм1.6 м/с5 %
    09:00Практически безоблачно+22°C71 %765 мм0.4 м/с5 %
    12:00Небольшая облачность+29°C56 %765 мм1.9 м/с5 %
    15:00Облачно с прояснениями+27°C60 %764 мм2.8 м/с5 %
    18:00Небольшая облачность+22°C87 %765 мм1.3 м/с5 %
    21:00Облачно с прояснениями+20°C87 %766 мм2.8 м/с5 %
  • 28июля
    Воскресенье
    +17°
    +31°
    Ясно и безоблачно
    ВремяПогодаТемператураВлажностьДавлениеВетер, м/сВероятность осадков
    00:00Облачно с прояснениями+20°C89 %765 мм3.0 м/с5 %
    03:00Ясно и безоблачно+19°C89 %764 мм2.6 м/с5 %
    06:00Ясно и безоблачно+16°C92 %765 мм1.7 м/с3 %
    09:00Ясно и безоблачно+23°C74 %766 мм2.0 м/с5 %
    12:00Ясно и безоблачно+31°C56 %764 мм1.6 м/с5 %
    15:00Ясно и безоблачно+30°C66 %763 мм3.6 м/с5 %
    18:00Ясно и безоблачно+26°C62 %763 мм4.7 м/с5 %
    21:00Ясно и безоблачно+22°C75 %764 мм4.4 м/с3 %
  • 29июля
    Понедельник
    +18°
    +31°
    Ясно и безоблачно
    ВремяПогодаТемператураВлажностьДавлениеВетер, м/сВероятность осадков
    00:00Ясно и безоблачно+21°C77 %764 мм4.0 м/с3 %
    03:00Ясно и безоблачно+20°C83 %763 мм3.1 м/с5 %
    06:00Ясно и безоблачно+18°C85 %763 мм2.4 м/с5 %
    09:00Ясно и безоблачно+27°C62 %764 мм0.7 м/с5 %
    12:00Ясно и безоблачно+29°C64 %763 мм5.0 м/с5 %
    15:00Ясно и безоблачно+25°C82 %763 мм6.1 м/с6 %
    18:00Практически безоблачно+21°C89 %765 мм6.0 м/с17 %
    21:00Практически безоблачно+20°C85 %766 мм6.8 м/с43 %
Мы используем cookies
Соглашаюсь